Oak Lawn, IL (60453)

07:22 CDT le 04 septembre 2015 (GMT -0500)
Oak Lawn - 48th Court | | Change Station
CLOSE
Current Station
Stations météorologiques personnelles
Location: Oak Lawn, IL
Altitude: 623 ft
Stations météo à proximité

Alt. 623 ft 41.72 °N, 87.74 °W | Updated 4 seconds ago

Ciel dégagé
Ciel dégagé
74.8 ° F
Paraît 75 ° F
N
2.2
Vent Variable Vent de NE
Gusts 2.7 mph

Aujourd'hui
Haut(e) -- | Bas -- ° F
--% Risque de précip.
Hier
Haut(e) -- | Bas -- ° F
Precip. -- pouce
6:19 AM 7:19 PM
Lune gibbeuse décroissante, 60% visible
Pression 29.96 pouce
Visibilité 10.0 Miles terrestres
Nuages Peu 4800 ft
Peu 9500 ft
indice de chaleur 75 ° F
Point de rosée 68 ° F
Humidité 79%
Précipitations 0.00 pouce
Profondeur de la couche neigeuse Non disponible.
UV 0 sur 12
Pollen 8.90 sur 12
Qualité de l'air Non disponible.
Flu Activity Non disponible.
METAR KMDW 041153Z 00000KT 10SM FEW048 FEW095 22/19 A2999 RMK AO2 SLP144 T02220189 10233 20222 53010
Pression 29.96 pouce
Visibilité 10.0 Miles terrestres
Nuages Peu 4800 ft
Peu 9500 ft
indice de chaleur 75 ° F
Point de rosée 68 ° F
Humidité 79%
Précipitations 0.00 pouce
Profondeur de la couche neigeuse Non disponible.
UV 0 sur 12
Pollen 8.90 sur 12
Qualité de l'air Non disponible.
Flu Activity Non disponible.
METAR KMDW 041153Z 00000KT 10SM FEW048 FEW095 22/19 A2999 RMK AO2 SLP144 T02220189 10233 20222 53010

10-Day Weather Forecast

×

Almanac

Astronomie

Sep. 04, 2015 Lever Coucher
Temps réel
Crépuscule civil
Crépuscule nautique
Crépuscule astronomique
Lune
Durée de lumière visible
Longueur du jour
Tomorrow will be .
, % of the Moon is Illuminated

Extrêmes aujourd'hui

State Highs State Lows

Community

WunderPhotos

Upload Photos

1,852,160 Photos téléchargées !

WunderBlogs® & News

Nearby

Qualité de l'air

  Qualité de l'air Indice de la qualité de l'air Polluant
Not available.

Épaisseur de neige

Station Depth Altitude

Activité sismique

Ville Distance Mag. Time & Date
Minimum magnitude displayed is 2.5.

Températures des eaux côtières

Lieu Température

Stations

Stations météo à proximité

Emplacement de la station Température Refroidissement éolien Point de rosée Humidité Vent Precip. Alt. Mise à jour Type